createdAt,value
2022-12-29T00:01:11.167Z,18.23
2022-12-29T00:03:39.308Z,12.73
2022-12-29T00:06:07.426Z,14.90
2022-12-29T00:08:41.602Z,14.13
2022-12-29T00:11:10.315Z,16.63
2022-12-29T00:13:57.388Z,14.47
2022-12-29T00:16:25.540Z,14.97
2022-12-29T00:18:53.803Z,13.03
2022-12-29T00:21:41.320Z,16.13
2022-12-29T00:24:31.421Z,13.33
2022-12-29T00:27:24.077Z,12.97
2022-12-29T00:30:11.837Z,12.73
2022-12-29T00:32:57.190Z,13.53
2022-12-29T00:35:29.187Z,12.97
2022-12-29T00:38:16.648Z,16.03
2022-12-29T00:41:01.981Z,12.50
2022-12-29T00:43:47.509Z,15.30
2022-12-29T00:46:19.908Z,12.50
2022-12-29T00:49:06.080Z,11.20
2022-12-29T00:51:34.047Z,12.00
2022-12-29T00:54:02.117Z,11.90
2022-12-29T00:56:30.180Z,12.40
2022-12-29T00:59:01.512Z,15.70
2022-12-29T01:01:31.396Z,11.00
2022-12-29T01:04:03.671Z,13.00
2022-12-29T01:06:33.293Z,12.03
2022-12-29T01:09:18.623Z,11.07
2022-12-29T01:11:46.561Z,9.03
2022-12-29T01:14:15.016Z,10.73
2022-12-29T01:16:44.639Z,12.10
2022-12-29T01:19:12.800Z,10.63
2022-12-29T01:21:40.707Z,10.70
2022-12-29T01:24:08.772Z,13.97
2022-12-29T01:26:36.738Z,11.47
2022-12-29T01:29:04.752Z,9.60
2022-12-29T01:31:32.762Z,11.77
2022-12-29T01:34:02.452Z,9.20
2022-12-29T01:36:30.979Z,12.83
2022-12-29T01:39:00.280Z,9.60
2022-12-29T01:41:28.669Z,10.33
2022-12-29T01:43:58.447Z,12.23
2022-12-29T01:46:30.172Z,10.33
2022-12-29T01:49:07.477Z,10.43
2022-12-29T01:51:39.820Z,9.87
2022-12-29T01:54:12.114Z,11.00
2022-12-29T01:56:40.349Z,8.93
2022-12-29T01:59:13.248Z,11.23
2022-12-29T02:01:43.294Z,8.23
2022-12-29T02:04:14.518Z,9.47
2022-12-29T02:06:48.042Z,10.60
2022-12-29T02:09:17.133Z,12.37
2022-12-29T02:11:46.274Z,10.30
2022-12-29T02:14:15.649Z,8.03
2022-12-29T02:16:57.087Z,9.20
2022-12-29T02:19:57.143Z,10.03
2022-12-29T02:22:34.274Z,10.40
2022-12-29T02:25:32.801Z,8.63
2022-12-29T02:28:26.296Z,8.50
2022-12-29T02:31:07.468Z,10.10
2022-12-29T02:33:53.587Z,7.87
2022-12-29T02:36:31.027Z,10.03
2022-12-29T02:39:08.464Z,7.60
2022-12-29T02:41:43.596Z,7.53
2022-12-29T02:44:17.584Z,8.13
2022-12-29T02:46:53.628Z,10.87
2022-12-29T02:49:29.676Z,9.47
2022-12-29T02:52:03.036Z,9.40
2022-12-29T02:54:42.938Z,9.00
2022-12-29T02:57:15.060Z,10.53
2022-12-29T02:59:45.284Z,12.37
2022-12-29T03:02:33.075Z,12.13
2022-12-29T03:05:16.969Z,8.87
2022-12-29T03:07:52.248Z,11.70
2022-12-29T03:10:32.881Z,10.43
2022-12-29T03:13:27.531Z,8.50
2022-12-29T03:16:03.459Z,8.00
2022-12-29T03:18:46.139Z,8.10
2022-12-29T03:21:19.696Z,9.40
2022-12-29T03:23:50.815Z,11.40
2022-12-29T03:26:21.828Z,9.97
2022-12-29T03:28:55.351Z,9.90
2022-12-29T03:31:27.490Z,10.83
2022-12-29T03:34:00.557Z,11.53
2022-12-29T03:36:32.597Z,12.80
2022-12-29T03:39:05.900Z,9.47
2022-12-29T03:41:36.367Z,13.33
2022-12-29T03:44:08.070Z,9.17
2022-12-29T03:46:36.683Z,7.97
2022-12-29T03:49:07.524Z,10.60
2022-12-29T03:51:35.416Z,9.77
2022-12-29T03:54:04.701Z,11.07
2022-12-29T03:56:32.736Z,11.40
2022-12-29T03:59:00.723Z,8.93
2022-12-29T04:01:40.317Z,8.90
2022-12-29T04:04:10.514Z,12.43
2022-12-29T04:06:38.903Z,11.67
2022-12-29T04:09:09.555Z,10.10
2022-12-29T04:11:42.572Z,14.60
2022-12-29T04:14:10.737Z,15.43
2022-12-29T04:16:39.885Z,11.43
2022-12-29T04:19:10.253Z,11.97
2022-12-29T04:21:38.979Z,9.40
2022-12-29T04:24:08.046Z,8.83
2022-12-29T04:26:40.800Z,11.80
2022-12-29T04:29:27.211Z,22.20
2022-12-29T04:32:14.205Z,14.87
2022-12-29T04:34:48.629Z,13.03
2022-12-29T04:37:16.674Z,10.50
2022-12-29T04:39:44.630Z,10.30
2022-12-29T04:42:13.389Z,11.20
2022-12-29T04:44:45.056Z,9.60
2022-12-29T04:47:17.351Z,13.00
2022-12-29T04:49:58.145Z,13.53
2022-12-29T04:52:41.793Z,10.47
2022-12-29T04:55:11.988Z,10.53
2022-12-29T04:57:40.187Z,10.33
2022-12-29T05:00:10.985Z,12.27
2022-12-29T05:02:39.638Z,9.00
2022-12-29T05:05:10.155Z,9.07
2022-12-29T05:07:42.920Z,14.73
2022-12-29T05:10:11.383Z,9.90
2022-12-29T05:12:39.800Z,10.87
2022-12-29T05:15:11.015Z,10.57
2022-12-29T05:17:39.780Z,14.57
2022-12-29T05:20:11.526Z,9.47
2022-12-29T05:22:40.209Z,9.47
2022-12-29T05:25:09.782Z,9.60
2022-12-29T05:27:50.392Z,11.93
2022-12-29T05:30:28.804Z,14.90
2022-12-29T05:32:56.794Z,10.60
2022-12-29T05:35:26.455Z,12.60
2022-12-29T05:37:54.707Z,12.67
2022-12-29T05:40:22.727Z,15.80
2022-12-29T05:42:50.754Z,12.17
2022-12-29T05:45:40.492Z,12.33
2022-12-29T05:48:28.074Z,16.73
2022-12-29T05:51:26.081Z,15.37
2022-12-29T05:53:55.555Z,12.93
2022-12-29T05:56:24.334Z,14.10
2022-12-29T05:58:57.667Z,12.97
2022-12-29T06:01:26.388Z,14.80
2022-12-29T06:03:56.003Z,14.60
2022-12-29T06:06:25.489Z,15.83
2022-12-29T06:08:54.514Z,15.73
2022-12-29T06:11:22.980Z,15.00
2022-12-29T06:13:54.978Z,12.30
2022-12-29T06:16:24.798Z,13.53
2022-12-29T06:18:56.165Z,14.03
2022-12-29T06:21:25.471Z,12.83
2022-12-29T06:23:53.453Z,15.73
2022-12-29T06:26:22.217Z,13.60
2022-12-29T06:28:50.212Z,14.50
2022-12-29T06:31:18.157Z,11.80
2022-12-29T06:33:49.841Z,19.00
2022-12-29T06:36:18.642Z,21.87
2022-12-29T06:38:48.260Z,17.60
2022-12-29T06:41:16.257Z,12.93
2022-12-29T06:43:45.178Z,14.23
2022-12-29T06:46:22.437Z,14.00
2022-12-29T06:48:50.398Z,13.83
2022-12-29T06:51:18.417Z,17.53
2022-12-29T06:53:47.673Z,12.50
2022-12-29T06:56:15.599Z,17.37
2022-12-29T06:58:43.516Z,13.60
2022-12-29T07:01:11.453Z,15.77
2022-12-29T07:03:39.449Z,12.23
2022-12-29T07:06:07.891Z,10.93
2022-12-29T07:08:35.923Z,12.97
2022-12-29T07:11:05.459Z,15.73
2022-12-29T07:13:33.327Z,14.80
2022-12-29T07:16:01.237Z,14.37
2022-12-29T07:18:29.162Z,13.83
2022-12-29T07:20:57.069Z,16.53
2022-12-29T07:23:24.996Z,11.07
2022-12-29T07:26:00.317Z,13.07
2022-12-29T07:28:29.649Z,14.23
2022-12-29T07:30:57.857Z,16.50
2022-12-29T07:33:25.842Z,18.53
2022-12-29T07:35:54.032Z,16.70
2022-12-29T07:38:22.025Z,14.80
2022-12-29T07:40:50.039Z,13.80
2022-12-29T07:43:17.989Z,13.50
2022-12-29T07:46:06.493Z,14.40
2022-12-29T07:48:36.911Z,14.77
2022-12-29T07:51:04.996Z,17.83
2022-12-29T07:53:32.991Z,12.57
2022-12-29T07:56:02.031Z,14.43
2022-12-29T07:58:29.970Z,11.13
2022-12-29T08:00:58.419Z,10.73
2022-12-29T08:03:27.902Z,11.70
2022-12-29T08:05:55.825Z,12.77
2022-12-29T08:08:23.716Z,10.67
2022-12-29T08:10:51.712Z,14.10
2022-12-29T08:13:19.625Z,14.70
2022-12-29T08:15:47.568Z,19.93
2022-12-29T08:18:15.669Z,22.67
2022-12-29T08:20:44.952Z,21.47
2022-12-29T08:23:12.855Z,18.03
2022-12-29T08:25:40.727Z,10.83
2022-12-29T08:28:08.673Z,12.97
2022-12-29T08:30:37.839Z,12.83
2022-12-29T08:33:05.756Z,10.03
2022-12-29T08:35:33.652Z,11.17
2022-12-29T08:38:02.919Z,9.17
2022-12-29T08:40:30.852Z,9.17
2022-12-29T08:42:58.762Z,8.10
2022-12-29T08:45:26.813Z,9.57
2022-12-29T08:47:54.683Z,10.40
2022-12-29T08:50:22.646Z,8.40
2022-12-29T08:52:50.595Z,8.57
2022-12-29T08:55:19.938Z,8.03
2022-12-29T08:57:48.820Z,7.80
2022-12-29T09:00:21.195Z,8.63
2022-12-29T09:02:49.576Z,8.40
2022-12-29T09:05:17.890Z,9.90
2022-12-29T09:07:46.245Z,7.90
2022-12-29T09:10:14.273Z,8.10
2022-12-29T09:12:43.569Z,8.63
2022-12-29T09:15:13.039Z,9.00
2022-12-29T09:17:44.391Z,7.63
2022-12-29T09:20:13.086Z,7.50
2022-12-29T09:22:41.134Z,7.33
2022-12-29T09:25:10.374Z,9.10
2022-12-29T09:27:39.023Z,10.13
2022-12-29T09:30:11.127Z,9.17
2022-12-29T09:32:44.615Z,7.13
2022-12-29T09:35:14.520Z,10.60
2022-12-29T09:37:42.932Z,12.00
2022-12-29T09:40:23.918Z,9.60
2022-12-29T09:43:03.349Z,11.07
2022-12-29T09:45:38.243Z,9.50
2022-12-29T09:48:09.950Z,9.90
2022-12-29T09:50:39.813Z,7.37
2022-12-29T09:53:16.667Z,9.67
2022-12-29T09:55:49.585Z,8.50
2022-12-29T09:58:23.608Z,8.73
2022-12-29T10:01:00.797Z,9.53
2022-12-29T10:03:38.423Z,8.57
2022-12-29T10:06:12.000Z,12.10
2022-12-29T10:08:46.586Z,9.23
2022-12-29T10:11:33.233Z,9.47
2022-12-29T10:14:19.726Z,11.17
2022-12-29T10:17:02.500Z,11.10
2022-12-29T10:19:49.245Z,9.47
2022-12-29T10:22:30.631Z,8.10
2022-12-29T10:24:58.724Z,14.13
2022-12-29T10:27:34.793Z,14.90
2022-12-29T10:30:04.759Z,12.53
2022-12-29T10:32:40.323Z,8.93
2022-12-29T10:35:16.281Z,10.33
2022-12-29T10:37:48.205Z,11.40
2022-12-29T10:40:23.953Z,10.30
2022-12-29T10:42:55.588Z,8.97
2022-12-29T10:45:29.726Z,9.73
2022-12-29T10:48:04.225Z,13.27
2022-12-29T10:50:32.204Z,9.50
2022-12-29T10:53:03.979Z,9.63
2022-12-29T10:55:36.695Z,9.27
2022-12-29T10:58:08.121Z,12.30
2022-12-29T11:00:36.445Z,8.97
2022-12-29T11:03:42.728Z,9.07
2022-12-29T11:06:14.686Z,11.53
2022-12-29T11:08:52.246Z,7.57
2022-12-29T11:11:27.079Z,9.57
2022-12-29T11:14:00.007Z,8.10
2022-12-29T11:16:32.679Z,8.87
2022-12-29T11:19:02.067Z,12.20
2022-12-29T11:21:35.038Z,10.80
2022-12-29T11:24:05.681Z,7.93
2022-12-29T11:26:34.948Z,10.23
2022-12-29T11:29:27.724Z,8.77
2022-12-29T11:31:59.048Z,9.07
2022-12-29T11:34:33.696Z,7.27
2022-12-29T11:37:04.785Z,12.50
2022-12-29T11:39:41.351Z,11.73
2022-12-29T11:42:17.671Z,10.50
2022-12-29T11:44:47.930Z,10.73
2022-12-29T11:47:26.184Z,11.00
2022-12-29T11:49:58.846Z,10.63
2022-12-29T11:52:29.133Z,9.00
2022-12-29T11:54:58.616Z,8.70
2022-12-29T11:57:43.808Z,10.23
2022-12-29T12:00:20.216Z,8.87
2022-12-29T12:02:58.859Z,9.80
2022-12-29T12:05:35.449Z,9.73
2022-12-29T12:08:13.948Z,10.83
2022-12-29T12:10:50.120Z,13.23
2022-12-29T12:13:24.615Z,9.10
2022-12-29T12:15:57.759Z,9.47
2022-12-29T12:18:36.210Z,9.03
2022-12-29T12:21:15.521Z,9.47
2022-12-29T12:23:58.323Z,11.03
2022-12-29T12:26:34.272Z,7.50
2022-12-29T12:29:07.719Z,9.67
2022-12-29T12:31:46.860Z,8.20
2022-12-29T12:34:19.953Z,10.20
2022-12-29T12:37:04.470Z,10.53
2022-12-29T12:39:45.250Z,9.63
2022-12-29T12:42:27.937Z,11.13
2022-12-29T12:45:06.456Z,9.20
2022-12-29T12:47:46.332Z,10.87
2022-12-29T12:50:28.908Z,7.17
2022-12-29T12:53:16.808Z,7.60
2022-12-29T12:56:03.659Z,9.13
2022-12-29T12:58:40.071Z,9.83
2022-12-29T13:01:26.028Z,6.67
2022-12-29T13:04:11.029Z,8.33
2022-12-29T13:06:47.403Z,9.37
2022-12-29T13:09:30.957Z,7.20
2022-12-29T13:12:12.253Z,10.63
2022-12-29T13:14:55.827Z,10.07
2022-12-29T13:17:31.975Z,9.73
2022-12-29T13:20:10.475Z,9.63
2022-12-29T13:22:46.373Z,10.43
2022-12-29T13:25:29.774Z,11.80
2022-12-29T13:28:03.671Z,11.57
2022-12-29T13:30:36.597Z,11.27
2022-12-29T13:33:20.924Z,9.93
2022-12-29T13:35:57.663Z,12.53
2022-12-29T13:38:31.136Z,11.13
2022-12-29T13:41:05.262Z,10.40
2022-12-29T13:43:41.326Z,9.00
2022-12-29T13:46:14.586Z,11.03
2022-12-29T13:48:48.351Z,14.80
2022-12-29T13:51:21.388Z,24.97
2022-12-29T13:54:19.972Z,16.97
2022-12-29T13:56:54.563Z,14.33
2022-12-29T13:59:30.574Z,14.50
2022-12-29T14:02:05.510Z,15.57
2022-12-29T14:04:36.029Z,24.73
2022-12-29T14:07:06.586Z,20.03
2022-12-29T14:09:48.287Z,20.17
2022-12-29T14:12:40.636Z,15.60
2022-12-29T14:15:25.356Z,13.17
2022-12-29T14:18:07.560Z,16.63
2022-12-29T14:20:36.530Z,10.67
2022-12-29T14:23:19.153Z,10.60
2022-12-29T14:26:01.092Z,11.07
2022-12-29T14:28:32.449Z,10.80
2022-12-29T14:31:01.524Z,8.73
2022-12-29T14:33:31.711Z,8.03
2022-12-29T14:36:23.652Z,12.97
2022-12-29T14:38:51.911Z,10.77
2022-12-29T14:41:28.491Z,10.93
2022-12-29T14:44:01.508Z,11.60
2022-12-29T14:46:48.206Z,10.80
2022-12-29T14:49:20.603Z,11.40
2022-12-29T14:51:49.891Z,12.93
2022-12-29T14:54:43.349Z,16.77
2022-12-29T14:57:21.063Z,16.00
2022-12-29T14:59:54.491Z,18.20
2022-12-29T15:02:26.957Z,20.27
2022-12-29T15:05:00.208Z,22.60
2022-12-29T15:07:29.928Z,17.27
2022-12-29T15:10:05.636Z,14.50
2022-12-29T15:12:39.220Z,9.17
2022-12-29T15:15:21.263Z,15.00
2022-12-29T15:17:49.469Z,9.87
2022-12-29T15:20:24.462Z,14.87
2022-12-29T15:22:56.885Z,15.27
2022-12-29T15:25:26.210Z,12.67
2022-12-29T15:28:03.788Z,11.67
2022-12-29T15:30:34.663Z,9.77
2022-12-29T15:33:03.709Z,14.40
2022-12-29T15:35:35.267Z,14.93
2022-12-29T15:38:16.991Z,12.77
2022-12-29T15:40:46.866Z,17.97
2022-12-29T15:43:44.884Z,14.03
2022-12-29T15:46:16.416Z,17.43
2022-12-29T15:48:44.884Z,21.00
2022-12-29T15:51:26.491Z,16.03
2022-12-29T15:53:56.267Z,13.77
2022-12-29T15:56:24.278Z,14.13
2022-12-29T15:58:53.745Z,11.73
2022-12-29T16:01:29.783Z,10.43
2022-12-29T16:04:00.073Z,15.30
2022-12-29T16:06:31.790Z,12.43
2022-12-29T16:09:03.467Z,15.13
2022-12-29T16:11:50.449Z,12.13
2022-12-29T16:14:21.933Z,12.60
2022-12-29T16:16:52.522Z,13.67
2022-12-29T16:19:25.874Z,13.20
2022-12-29T16:21:54.059Z,12.63
2022-12-29T16:24:25.453Z,12.07
2022-12-29T16:26:57.258Z,18.47
2022-12-29T16:29:25.601Z,12.03
2022-12-29T16:32:01.537Z,12.20
2022-12-29T16:34:32.686Z,12.17
2022-12-29T16:37:02.086Z,16.23
2022-12-29T16:39:36.809Z,14.07
2022-12-29T16:42:38.665Z,13.83
2022-12-29T16:45:36.663Z,11.77
2022-12-29T16:48:20.280Z,15.87
2022-12-29T16:50:49.563Z,12.60
2022-12-29T16:53:21.909Z,11.17
2022-12-29T16:55:51.196Z,12.53
2022-12-29T16:58:23.364Z,14.77
2022-12-29T17:00:54.036Z,11.57
2022-12-29T17:03:23.541Z,11.93
2022-12-29T17:05:57.215Z,14.97
2022-12-29T17:08:25.771Z,14.07
2022-12-29T17:11:13.176Z,11.73
2022-12-29T17:13:41.498Z,13.57
2022-12-29T17:16:12.559Z,11.30
2022-12-29T17:18:41.952Z,13.87
2022-12-29T17:21:09.912Z,14.50
2022-12-29T17:23:37.828Z,11.97
2022-12-29T17:26:06.269Z,14.80
2022-12-29T17:28:34.570Z,11.67
2022-12-29T17:31:04.521Z,11.03
2022-12-29T17:33:38.149Z,12.40
2022-12-29T17:36:08.399Z,12.93
2022-12-29T17:38:38.189Z,13.20
2022-12-29T17:41:12.500Z,11.80
2022-12-29T17:43:41.142Z,14.93
2022-12-29T17:46:09.839Z,13.47
2022-12-29T17:48:38.094Z,15.97
2022-12-29T17:51:08.045Z,21.67
2022-12-29T17:53:36.200Z,21.77
2022-12-29T17:56:04.406Z,18.30
2022-12-29T17:58:34.032Z,18.33
2022-12-29T18:01:03.886Z,15.37
2022-12-29T18:03:35.116Z,13.90
2022-12-29T18:06:06.428Z,18.40
2022-12-29T18:08:36.232Z,21.23
2022-12-29T18:15:04.015Z,30.47
2022-12-29T18:17:31.997Z,23.17
2022-12-29T18:20:00.117Z,26.43
2022-12-29T18:22:30.187Z,27.63
2022-12-29T18:24:59.503Z,14.30
2022-12-29T18:27:28.007Z,15.67
2022-12-29T18:29:55.993Z,14.17
2022-12-29T18:32:24.167Z,16.93
2022-12-29T18:34:52.152Z,15.40
2022-12-29T18:37:20.172Z,16.53
2022-12-29T18:39:48.142Z,13.57
2022-12-29T18:42:19.483Z,15.10
2022-12-29T18:44:47.415Z,14.53
2022-12-29T18:47:15.423Z,13.10
2022-12-29T18:49:43.517Z,15.67
2022-12-29T18:52:14.813Z,14.97
2022-12-29T18:54:42.772Z,16.83
2022-12-29T18:57:10.835Z,19.50
2022-12-29T18:59:41.047Z,19.77
2022-12-29T19:02:17.571Z,26.27
2022-12-29T19:04:48.907Z,21.30
2022-12-29T19:07:20.876Z,29.00
2022-12-29T19:09:48.833Z,26.40
2022-12-29T19:12:17.221Z,35.60
2022-12-29T19:14:46.940Z,27.47
2022-12-29T19:17:15.808Z,39.43
2022-12-29T19:19:43.794Z,32.57
2022-12-29T19:22:11.717Z,41.53
2022-12-29T19:24:39.839Z,34.03
2022-12-29T19:27:07.724Z,31.97
2022-12-29T19:29:35.829Z,18.33
2022-12-29T19:32:05.489Z,15.37
2022-12-29T19:34:33.613Z,17.43
2022-12-29T19:37:01.695Z,23.53
2022-12-29T19:39:29.721Z,23.47
2022-12-29T19:42:03.585Z,36.33
2022-12-29T19:44:33.389Z,26.33
2022-12-29T19:47:01.349Z,17.90
2022-12-29T19:49:30.910Z,17.30
2022-12-29T19:51:58.977Z,20.73
2022-12-29T19:54:27.035Z,20.70
2022-12-29T19:56:55.012Z,28.33
2022-12-29T19:59:22.973Z,20.93
2022-12-29T20:01:51.397Z,23.70
2022-12-29T20:04:19.454Z,21.30
2022-12-29T20:06:48.707Z,21.83
2022-12-29T20:09:16.777Z,40.77
2022-12-29T20:11:44.713Z,28.67
2022-12-29T20:14:12.838Z,21.53
2022-12-29T20:17:02.381Z,19.17
2022-12-29T20:19:30.492Z,19.87
2022-12-29T20:21:59.811Z,17.60
2022-12-29T20:24:28.253Z,16.20
2022-12-29T20:26:56.220Z,24.53
2022-12-29T20:29:24.759Z,22.67
2022-12-29T20:31:53.872Z,19.80
2022-12-29T20:34:22.237Z,19.80
2022-12-29T20:36:50.979Z,16.57
2022-12-29T20:39:21.516Z,17.07
2022-12-29T20:41:49.774Z,20.77
2022-12-29T20:44:17.798Z,19.00
2022-12-29T20:46:45.885Z,19.80
2022-12-29T20:49:14.088Z,17.30
2022-12-29T20:54:38.746Z,16.60
2022-12-29T20:57:07.807Z,14.37
2022-12-29T20:59:35.826Z,16.57
2022-12-29T21:02:04.133Z,18.37
2022-12-29T21:04:57.349Z,14.23
2022-12-29T21:07:20.545Z,15.30
2022-12-29T21:09:49.924Z,16.03
2022-12-29T21:12:17.918Z,14.80
2022-12-29T21:14:46.225Z,14.93
2022-12-29T21:17:14.467Z,17.77
2022-12-29T21:19:42.445Z,18.90
2022-12-29T21:22:10.467Z,20.60
2022-12-29T21:24:39.542Z,16.57
2022-12-29T21:27:08.870Z,16.53
2022-12-29T21:29:36.814Z,15.17
2022-12-29T21:32:06.647Z,23.10
2022-12-29T21:34:35.507Z,21.53
2022-12-29T21:37:03.566Z,24.47
2022-12-29T21:39:31.477Z,21.67
2022-12-29T21:42:00.281Z,18.23
2022-12-29T21:44:47.340Z,17.70
2022-12-29T21:47:15.383Z,16.70
2022-12-29T21:49:43.388Z,13.80
2022-12-29T21:52:11.320Z,19.33
2022-12-29T21:54:56.681Z,16.63
2022-12-29T21:57:42.277Z,19.20
2022-12-29T22:00:30.691Z,16.30
2022-12-29T22:03:22.391Z,13.60
2022-12-29T22:06:09.027Z,17.70
2022-12-29T22:08:55.180Z,16.97
2022-12-29T22:11:40.831Z,14.83
2022-12-29T22:14:08.819Z,15.27
2022-12-29T22:16:38.136Z,16.33
2022-12-29T22:19:07.834Z,14.73
2022-12-29T22:21:35.796Z,17.53
2022-12-29T22:24:03.749Z,17.83
2022-12-29T22:26:31.957Z,16.40
2022-12-29T22:29:00.016Z,16.53
2022-12-29T22:31:30.204Z,18.10
2022-12-29T22:34:01.733Z,14.00
2022-12-29T22:36:30.326Z,15.43
2022-12-29T22:38:58.254Z,15.87
2022-12-29T22:41:26.415Z,17.47
2022-12-29T22:43:54.530Z,17.17
2022-12-29T22:46:22.856Z,15.63
2022-12-29T22:48:50.819Z,13.63
2022-12-29T22:51:20.074Z,16.20
2022-12-29T22:53:49.968Z,15.00
2022-12-29T22:56:17.951Z,20.10
2022-12-29T22:58:47.632Z,15.40
2022-12-29T23:01:18.319Z,16.13
2022-12-29T23:03:46.475Z,15.13
2022-12-29T23:06:17.413Z,14.43
2022-12-29T23:08:47.431Z,15.33
2022-12-29T23:11:16.229Z,17.50
2022-12-29T23:13:45.096Z,17.70
2022-12-29T23:16:13.510Z,14.83
2022-12-29T23:18:41.661Z,13.53
2022-12-29T23:21:10.219Z,13.63
2022-12-29T23:23:56.977Z,15.10
2022-12-29T23:26:28.256Z,15.40
2022-12-29T23:29:00.229Z,18.90
2022-12-29T23:31:29.695Z,15.30
2022-12-29T23:33:57.881Z,17.50
2022-12-29T23:36:26.146Z,15.93
2022-12-29T23:38:54.233Z,18.03
2022-12-29T23:41:22.133Z,16.60
2022-12-29T23:43:51.755Z,17.20
2022-12-29T23:46:21.868Z,14.93
2022-12-29T23:48:50.158Z,14.17
2022-12-29T23:51:18.559Z,16.03
2022-12-29T23:53:46.933Z,14.97
2022-12-29T23:56:17.985Z,16.93
2022-12-29T23:58:45.927Z,17.47
